Terminal Aerodrome Forecast
Issued by NWS

Home | Current Version | Previous Version | Text Only | Print | Product List | Glossary On
Versions: 1 2 3 4 5 6 7 8 9 10 11 12 13 14 15 16 17 18 19 20
000
FTUS43 KDVN 010201 AAA
TAFCID
TAF AMD
KCID 010201Z 0102/0124 28004KT P6SM SKC
     FM010700 23004KT P6SM SKC
     FM011300 26007KT P6SM FEW080=

USA.gov is the U.S. government's official web portal to all federal, state and local government web resources and services.